sensor_id;sensor_type;location;lat;lon;timestamp;P1;durP1;ratioP1;P2;durP2;ratioP2
54430;SDS011;40342;52.998;5.862;2023-04-16T00:00:56;7.78;;;4.38;;
54430;SDS011;40342;52.998;5.862;2023-04-16T00:03:21;8.13;;;4.93;;
54430;SDS011;40342;52.998;5.862;2023-04-16T00:05:47;7.05;;;4.45;;
54430;SDS011;40342;52.998;5.862;2023-04-16T00:08:13;10.40;;;4.82;;
54430;SDS011;40342;52.998;5.862;2023-04-16T00:10:39;12.38;;;5.55;;
54430;SDS011;40342;52.998;5.862;2023-04-16T00:13:05;9.52;;;5.57;;
54430;SDS011;40342;52.998;5.862;2023-04-16T00:15:31;8.63;;;4.32;;
54430;SDS011;40342;52.998;5.862;2023-04-16T00:17:56;9.63;;;5.05;;
54430;SDS011;40342;52.998;5.862;2023-04-16T00:20:22;9.60;;;5.30;;
54430;SDS011;40342;52.998;5.862;2023-04-16T00:22:48;10.68;;;5.20;;
54430;SDS011;40342;52.998;5.862;2023-04-16T00:25:13;9.45;;;5.25;;
54430;SDS011;40342;52.998;5.862;2023-04-16T00:27:39;7.70;;;5.40;;
54430;SDS011;40342;52.998;5.862;2023-04-16T00:30:05;10.73;;;5.68;;
54430;SDS011;40342;52.998;5.862;2023-04-16T00:32:31;11.10;;;5.57;;
54430;SDS011;40342;52.998;5.862;2023-04-16T00:34:57;8.82;;;4.85;;
54430;SDS011;40342;52.998;5.862;2023-04-16T00:37:24;7.18;;;4.47;;
54430;SDS011;40342;52.998;5.862;2023-04-16T00:39:50;10.60;;;5.43;;
54430;SDS011;40342;52.998;5.862;2023-04-16T00:42:15;8.55;;;5.00;;
54430;SDS011;40342;52.998;5.862;2023-04-16T00:44:41;6.68;;;4.38;;
54430;SDS011;40342;52.998;5.862;2023-04-16T00:47:06;9.55;;;4.55;;
54430;SDS011;40342;52.998;5.862;2023-04-16T00:49:33;8.40;;;4.40;;
54430;SDS011;40342;52.998;5.862;2023-04-16T00:52:00;10.07;;;4.97;;
54430;SDS011;40342;52.998;5.862;2023-04-16T00:54:27;9.85;;;4.88;;
54430;SDS011;40342;52.998;5.862;2023-04-16T00:56:53;9.70;;;5.28;;
54430;SDS011;40342;52.998;5.862;2023-04-16T00:59:19;8.65;;;4.38;;
54430;SDS011;40342;52.998;5.862;2023-04-16T01:01:45;9.30;;;4.65;;
54430;SDS011;40342;52.998;5.862;2023-04-16T01:04:11;7.80;;;5.03;;
54430;SDS011;40342;52.998;5.862;2023-04-16T01:06:37;9.13;;;4.95;;
54430;SDS011;40342;52.998;5.862;2023-04-16T01:09:02;6.65;;;4.60;;
54430;SDS011;40342;52.998;5.862;2023-04-16T01:11:28;8.10;;;4.50;;
54430;SDS011;40342;52.998;5.862;2023-04-16T01:13:53;9.95;;;4.70;;
54430;SDS011;40342;52.998;5.862;2023-04-16T01:16:19;7.65;;;4.40;;
54430;SDS011;40342;52.998;5.862;2023-04-16T01:18:44;7.93;;;4.35;;
54430;SDS011;40342;52.998;5.862;2023-04-16T01:21:10;10.43;;;4.20;;
54430;SDS011;40342;52.998;5.862;2023-04-16T01:23:36;6.38;;;4.45;;
54430;SDS011;40342;52.998;5.862;2023-04-16T01:26:01;6.85;;;5.00;;
54430;SDS011;40342;52.998;5.862;2023-04-16T01:28:27;8.75;;;5.22;;
54430;SDS011;40342;52.998;5.862;2023-04-16T01:30:53;6.10;;;4.35;;
54430;SDS011;40342;52.998;5.862;2023-04-16T01:33:19;8.05;;;4.57;;
54430;SDS011;40342;52.998;5.862;2023-04-16T01:35:45;10.52;;;5.30;;
54430;SDS011;40342;52.998;5.862;2023-04-16T01:38:11;9.70;;;5.15;;
54430;SDS011;40342;52.998;5.862;2023-04-16T01:40:36;9.07;;;4.78;;
54430;SDS011;40342;52.998;5.862;2023-04-16T01:43:02;6.95;;;5.22;;
54430;SDS011;40342;52.998;5.862;2023-04-16T01:45:29;6.28;;;4.95;;
54430;SDS011;40342;52.998;5.862;2023-04-16T01:47:56;6.05;;;4.85;;
54430;SDS011;40342;52.998;5.862;2023-04-16T01:50:21;7.75;;;4.53;;
54430;SDS011;40342;52.998;5.862;2023-04-16T01:52:47;7.55;;;5.10;;
54430;SDS011;40342;52.998;5.862;2023-04-16T01:55:13;9.82;;;5.90;;
54430;SDS011;40342;52.998;5.862;2023-04-16T01:57:39;9.05;;;5.70;;
54430;SDS011;40342;52.998;5.862;2023-04-16T02:00:05;11.55;;;6.43;;
54430;SDS011;40342;52.998;5.862;2023-04-16T02:02:33;9.00;;;6.70;;
54430;SDS011;40342;52.998;5.862;2023-04-16T02:04:58;11.52;;;7.28;;
54430;SDS011;40342;52.998;5.862;2023-04-16T02:07:24;11.98;;;5.97;;
54430;SDS011;40342;52.998;5.862;2023-04-16T02:09:50;9.20;;;6.38;;
54430;SDS011;40342;52.998;5.862;2023-04-16T02:12:16;10.48;;;7.20;;
54430;SDS011;40342;52.998;5.862;2023-04-16T02:14:41;12.45;;;6.75;;
54430;SDS011;40342;52.998;5.862;2023-04-16T02:17:07;8.93;;;6.18;;
54430;SDS011;40342;52.998;5.862;2023-04-16T02:19:33;9.48;;;5.63;;
54430;SDS011;40342;52.998;5.862;2023-04-16T02:21:59;10.35;;;6.65;;
54430;SDS011;40342;52.998;5.862;2023-04-16T02:24:25;10.35;;;6.82;;
54430;SDS011;40342;52.998;5.862;2023-04-16T02:26:52;8.93;;;6.25;;
54430;SDS011;40342;52.998;5.862;2023-04-16T02:29:18;9.98;;;6.50;;
54430;SDS011;40342;52.998;5.862;2023-04-16T02:31:43;14.05;;;6.93;;
54430;SDS011;40342;52.998;5.862;2023-04-16T02:34:10;9.20;;;6.22;;
54430;SDS011;40342;52.998;5.862;2023-04-16T02:36:36;9.52;;;6.47;;
54430;SDS011;40342;52.998;5.862;2023-04-16T02:39:02;12.80;;;6.93;;
54430;SDS011;40342;52.998;5.862;2023-04-16T02:41:28;10.43;;;6.32;;
54430;SDS011;40342;52.998;5.862;2023-04-16T02:43:54;12.95;;;7.07;;
54430;SDS011;40342;52.998;5.862;2023-04-16T02:46:20;9.65;;;6.45;;
54430;SDS011;40342;52.998;5.862;2023-04-16T02:48:46;9.43;;;6.13;;
54430;SDS011;40342;52.998;5.862;2023-04-16T02:51:11;12.60;;;7.47;;
54430;SDS011;40342;52.998;5.862;2023-04-16T02:53:37;13.10;;;7.35;;
54430;SDS011;40342;52.998;5.862;2023-04-16T02:56:03;14.90;;;7.07;;
54430;SDS011;40342;52.998;5.862;2023-04-16T02:58:29;11.05;;;6.85;;
54430;SDS011;40342;52.998;5.862;2023-04-16T03:00:54;11.10;;;6.95;;
54430;SDS011;40342;52.998;5.862;2023-04-16T03:03:20;11.93;;;7.10;;
54430;SDS011;40342;52.998;5.862;2023-04-16T03:05:46;14.30;;;8.40;;
54430;SDS011;40342;52.998;5.862;2023-04-16T03:08:12;12.48;;;7.72;;
54430;SDS011;40342;52.998;5.862;2023-04-16T03:10:38;17.67;;;9.00;;
54430;SDS011;40342;52.998;5.862;2023-04-16T03:13:04;10.63;;;7.65;;
54430;SDS011;40342;52.998;5.862;2023-04-16T03:15:29;11.15;;;6.80;;
54430;SDS011;40342;52.998;5.862;2023-04-16T03:17:55;12.40;;;7.00;;
54430;SDS011;40342;52.998;5.862;2023-04-16T03:20:21;12.30;;;6.40;;
54430;SDS011;40342;52.998;5.862;2023-04-16T03:22:47;9.57;;;6.47;;
54430;SDS011;40342;52.998;5.862;2023-04-16T03:25:13;12.13;;;7.07;;
54430;SDS011;40342;52.998;5.862;2023-04-16T03:27:39;12.05;;;7.18;;
54430;SDS011;40342;52.998;5.862;2023-04-16T03:30:12;11.88;;;6.75;;
54430;SDS011;40342;52.998;5.862;2023-04-16T03:35:04;9.82;;;6.28;;
54430;SDS011;40342;52.998;5.862;2023-04-16T03:37:31;11.15;;;6.47;;
54430;SDS011;40342;52.998;5.862;2023-04-16T03:39:57;9.48;;;7.15;;
54430;SDS011;40342;52.998;5.862;2023-04-16T03:42:22;9.35;;;6.72;;
54430;SDS011;40342;52.998;5.862;2023-04-16T03:44:48;12.10;;;6.25;;
54430;SDS011;40342;52.998;5.862;2023-04-16T03:47:13;10.25;;;6.10;;
54430;SDS011;40342;52.998;5.862;2023-04-16T03:49:39;10.52;;;6.88;;
54430;SDS011;40342;52.998;5.862;2023-04-16T03:52:05;11.88;;;6.75;;
54430;SDS011;40342;52.998;5.862;2023-04-16T03:54:30;11.40;;;6.18;;
54430;SDS011;40342;52.998;5.862;2023-04-16T03:56:56;12.30;;;7.05;;
54430;SDS011;40342;52.998;5.862;2023-04-16T03:59:21;11.75;;;6.72;;
54430;SDS011;40342;52.998;5.862;2023-04-16T04:01:47;9.52;;;6.43;;
54430;SDS011;40342;52.998;5.862;2023-04-16T04:04:15;10.10;;;6.57;;
54430;SDS011;40342;52.998;5.862;2023-04-16T04:06:40;9.27;;;6.90;;
54430;SDS011;40342;52.998;5.862;2023-04-16T04:09:06;12.27;;;7.65;;
54430;SDS011;40342;52.998;5.862;2023-04-16T04:11:32;9.55;;;6.22;;
54430;SDS011;40342;52.998;5.862;2023-04-16T04:13:57;7.80;;;5.70;;
54430;SDS011;40342;52.998;5.862;2023-04-16T04:16:23;9.75;;;6.68;;
54430;SDS011;40342;52.998;5.862;2023-04-16T04:18:49;10.13;;;6.72;;
54430;SDS011;40342;52.998;5.862;2023-04-16T04:21:14;10.88;;;6.95;;
54430;SDS011;40342;52.998;5.862;2023-04-16T04:23:40;14.52;;;8.40;;
54430;SDS011;40342;52.998;5.862;2023-04-16T04:26:06;15.18;;;7.95;;
54430;SDS011;40342;52.998;5.862;2023-04-16T04:28:32;11.50;;;7.22;;
54430;SDS011;40342;52.998;5.862;2023-04-16T04:30:58;16.40;;;8.70;;
54430;SDS011;40342;52.998;5.862;2023-04-16T04:33:24;14.02;;;8.27;;
54430;SDS011;40342;52.998;5.862;2023-04-16T04:35:50;15.00;;;7.95;;
54430;SDS011;40342;52.998;5.862;2023-04-16T04:38:16;13.73;;;8.88;;
54430;SDS011;40342;52.998;5.862;2023-04-16T04:40:46;14.90;;;8.30;;
54430;SDS011;40342;52.998;5.862;2023-04-16T04:43:12;13.57;;;7.70;;
54430;SDS011;40342;52.998;5.862;2023-04-16T04:45:38;12.70;;;7.55;;
54430;SDS011;40342;52.998;5.862;2023-04-16T04:48:04;12.73;;;7.47;;
54430;SDS011;40342;52.998;5.862;2023-04-16T04:50:30;14.45;;;7.45;;
54430;SDS011;40342;52.998;5.862;2023-04-16T04:52:56;12.70;;;7.75;;
54430;SDS011;40342;52.998;5.862;2023-04-16T04:55:22;15.55;;;7.85;;
54430;SDS011;40342;52.998;5.862;2023-04-16T04:57:47;9.15;;;6.97;;
54430;SDS011;40342;52.998;5.862;2023-04-16T05:00:13;11.55;;;7.18;;
54430;SDS011;40342;52.998;5.862;2023-04-16T05:02:39;13.48;;;7.00;;
54430;SDS011;40342;52.998;5.862;2023-04-16T05:05:05;9.90;;;6.32;;
54430;SDS011;40342;52.998;5.862;2023-04-16T05:07:31;11.75;;;6.75;;
54430;SDS011;40342;52.998;5.862;2023-04-16T05:09:57;12.13;;;6.47;;
54430;SDS011;40342;52.998;5.862;2023-04-16T05:12:22;16.17;;;7.43;;
54430;SDS011;40342;52.998;5.862;2023-04-16T05:14:48;9.95;;;6.70;;
54430;SDS011;40342;52.998;5.862;2023-04-16T05:17:13;9.82;;;6.75;;
54430;SDS011;40342;52.998;5.862;2023-04-16T05:19:39;9.98;;;5.90;;
54430;SDS011;40342;52.998;5.862;2023-04-16T05:22:04;10.77;;;6.00;;
54430;SDS011;40342;52.998;5.862;2023-04-16T05:24:30;9.38;;;5.40;;
54430;SDS011;40342;52.998;5.862;2023-04-16T05:26:56;8.55;;;5.68;;
54430;SDS011;40342;52.998;5.862;2023-04-16T05:29:21;9.45;;;5.78;;
54430;SDS011;40342;52.998;5.862;2023-04-16T05:31:47;8.45;;;4.78;;
54430;SDS011;40342;52.998;5.862;2023-04-16T05:34:13;7.55;;;5.43;;
54430;SDS011;40342;52.998;5.862;2023-04-16T05:36:38;6.40;;;4.85;;
54430;SDS011;40342;52.998;5.862;2023-04-16T05:39:04;9.18;;;5.20;;
54430;SDS011;40342;52.998;5.862;2023-04-16T05:41:31;6.00;;;4.38;;
54430;SDS011;40342;52.998;5.862;2023-04-16T05:43:57;9.93;;;5.13;;
54430;SDS011;40342;52.998;5.862;2023-04-16T05:46:23;9.07;;;4.43;;
54430;SDS011;40342;52.998;5.862;2023-04-16T05:48:49;7.63;;;5.07;;
54430;SDS011;40342;52.998;5.862;2023-04-16T05:51:14;6.35;;;4.18;;
54430;SDS011;40342;52.998;5.862;2023-04-16T05:53:40;13.85;;;5.05;;
54430;SDS011;40342;52.998;5.862;2023-04-16T05:56:06;12.00;;;4.90;;
54430;SDS011;40342;52.998;5.862;2023-04-16T05:58:31;7.75;;;4.93;;
54430;SDS011;40342;52.998;5.862;2023-04-16T06:00:57;7.88;;;4.75;;
54430;SDS011;40342;52.998;5.862;2023-04-16T06:03:25;11.13;;;5.75;;
54430;SDS011;40342;52.998;5.862;2023-04-16T06:05:50;7.45;;;4.80;;
54430;SDS011;40342;52.998;5.862;2023-04-16T06:08:16;9.27;;;4.97;;
54430;SDS011;40342;52.998;5.862;2023-04-16T06:10:42;9.02;;;5.30;;
54430;SDS011;40342;52.998;5.862;2023-04-16T06:13:09;11.25;;;6.00;;
54430;SDS011;40342;52.998;5.862;2023-04-16T06:15:35;10.05;;;5.13;;
54430;SDS011;40342;52.998;5.862;2023-04-16T06:18:00;9.05;;;5.10;;
54430;SDS011;40342;52.998;5.862;2023-04-16T06:20:26;7.53;;;4.97;;
54430;SDS011;40342;52.998;5.862;2023-04-16T06:22:51;9.02;;;5.63;;
54430;SDS011;40342;52.998;5.862;2023-04-16T06:25:17;6.80;;;4.90;;
54430;SDS011;40342;52.998;5.862;2023-04-16T06:27:42;10.82;;;5.38;;
54430;SDS011;40342;52.998;5.862;2023-04-16T06:30:11;10.05;;;5.32;;
54430;SDS011;40342;52.998;5.862;2023-04-16T06:32:38;10.55;;;5.68;;
54430;SDS011;40342;52.998;5.862;2023-04-16T06:35:04;9.50;;;6.65;;
54430;SDS011;40342;52.998;5.862;2023-04-16T06:37:30;9.85;;;5.70;;
54430;SDS011;40342;52.998;5.862;2023-04-16T06:39:56;7.43;;;5.72;;
54430;SDS011;40342;52.998;5.862;2023-04-16T06:42:21;7.38;;;5.65;;
54430;SDS011;40342;52.998;5.862;2023-04-16T06:44:47;9.30;;;5.82;;
54430;SDS011;40342;52.998;5.862;2023-04-16T06:47:13;10.02;;;6.22;;
54430;SDS011;40342;52.998;5.862;2023-04-16T06:49:38;9.63;;;5.75;;
54430;SDS011;40342;52.998;5.862;2023-04-16T06:52:04;11.02;;;6.35;;
54430;SDS011;40342;52.998;5.862;2023-04-16T06:54:30;7.85;;;5.18;;
54430;SDS011;40342;52.998;5.862;2023-04-16T06:56:56;10.18;;;5.60;;
54430;SDS011;40342;52.998;5.862;2023-04-16T06:59:21;10.05;;;5.30;;
54430;SDS011;40342;52.998;5.862;2023-04-16T07:01:47;9.02;;;4.95;;
54430;SDS011;40342;52.998;5.862;2023-04-16T07:04:12;7.53;;;5.15;;
54430;SDS011;40342;52.998;5.862;2023-04-16T07:06:38;10.60;;;5.47;;
54430;SDS011;40342;52.998;5.862;2023-04-16T07:09:04;10.15;;;5.22;;
54430;SDS011;40342;52.998;5.862;2023-04-16T07:11:29;9.10;;;5.32;;
54430;SDS011;40342;52.998;5.862;2023-04-16T07:13:55;9.02;;;5.03;;
54430;SDS011;40342;52.998;5.862;2023-04-16T07:16:21;9.27;;;5.55;;
54430;SDS011;40342;52.998;5.862;2023-04-16T07:18:47;9.68;;;6.55;;
54430;SDS011;40342;52.998;5.862;2023-04-16T07:21:13;8.93;;;5.22;;
54430;SDS011;40342;52.998;5.862;2023-04-16T07:23:38;8.02;;;5.07;;
54430;SDS011;40342;52.998;5.862;2023-04-16T07:26:04;16.20;;;5.93;;
54430;SDS011;40342;52.998;5.862;2023-04-16T07:28:30;10.75;;;5.57;;
54430;SDS011;40342;52.998;5.862;2023-04-16T07:30:55;7.22;;;5.43;;
54430;SDS011;40342;52.998;5.862;2023-04-16T07:33:21;8.45;;;5.80;;
54430;SDS011;40342;52.998;5.862;2023-04-16T07:35:46;9.48;;;5.05;;
54430;SDS011;40342;52.998;5.862;2023-04-16T07:38:12;11.02;;;5.72;;
54430;SDS011;40342;52.998;5.862;2023-04-16T07:40:38;13.02;;;6.85;;
54430;SDS011;40342;52.998;5.862;2023-04-16T07:43:04;7.53;;;5.18;;
54430;SDS011;40342;52.998;5.862;2023-04-16T07:45:29;7.60;;;5.47;;
54430;SDS011;40342;52.998;5.862;2023-04-16T07:47:55;7.68;;;4.75;;
54430;SDS011;40342;52.998;5.862;2023-04-16T07:50:21;11.30;;;4.97;;
54430;SDS011;40342;52.998;5.862;2023-04-16T07:52:46;8.48;;;5.63;;
54430;SDS011;40342;52.998;5.862;2023-04-16T07:55:12;8.30;;;5.03;;
54430;SDS011;40342;52.998;5.862;2023-04-16T07:57:37;9.07;;;5.53;;
54430;SDS011;40342;52.998;5.862;2023-04-16T08:00:04;8.15;;;5.43;;
54430;SDS011;40342;52.998;5.862;2023-04-16T08:02:31;10.35;;;6.55;;
54430;SDS011;40342;52.998;5.862;2023-04-16T08:04:56;10.02;;;6.28;;
54430;SDS011;40342;52.998;5.862;2023-04-16T08:07:22;9.98;;;5.72;;
54430;SDS011;40342;52.998;5.862;2023-04-16T08:09:48;7.20;;;5.60;;
54430;SDS011;40342;52.998;5.862;2023-04-16T08:12:15;7.40;;;5.15;;
54430;SDS011;40342;52.998;5.862;2023-04-16T08:14:42;12.50;;;5.40;;
54430;SDS011;40342;52.998;5.862;2023-04-16T08:17:09;7.38;;;5.10;;
54430;SDS011;40342;52.998;5.862;2023-04-16T08:19:35;6.15;;;4.13;;
54430;SDS011;40342;52.998;5.862;2023-04-16T08:22:01;11.13;;;5.50;;
54430;SDS011;40342;52.998;5.862;2023-04-16T08:24:26;8.85;;;5.18;;
54430;SDS011;40342;52.998;5.862;2023-04-16T08:26:52;7.72;;;4.43;;
54430;SDS011;40342;52.998;5.862;2023-04-16T08:29:17;9.25;;;5.68;;
54430;SDS011;40342;52.998;5.862;2023-04-16T08:31:44;7.05;;;5.15;;
54430;SDS011;40342;52.998;5.862;2023-04-16T08:34:10;7.30;;;4.45;;
54430;SDS011;40342;52.998;5.862;2023-04-16T08:36:36;6.50;;;4.45;;
54430;SDS011;40342;52.998;5.862;2023-04-16T08:39:02;6.95;;;4.20;;
54430;SDS011;40342;52.998;5.862;2023-04-16T08:41:28;9.73;;;5.22;;
54430;SDS011;40342;52.998;5.862;2023-04-16T08:43:56;8.65;;;4.63;;
54430;SDS011;40342;52.998;5.862;2023-04-16T08:46:24;9.38;;;4.78;;
54430;SDS011;40342;52.998;5.862;2023-04-16T08:48:52;9.15;;;5.03;;
54430;SDS011;40342;52.998;5.862;2023-04-16T08:51:20;6.78;;;4.15;;
54430;SDS011;40342;52.998;5.862;2023-04-16T08:53:56;12.65;;;6.40;;
54430;SDS011;40342;52.998;5.862;2023-04-16T08:56:26;6.93;;;4.15;;
54430;SDS011;40342;52.998;5.862;2023-04-16T08:58:53;11.32;;;5.82;;
54430;SDS011;40342;52.998;5.862;2023-04-16T09:01:19;6.32;;;4.50;;
54430;SDS011;40342;52.998;5.862;2023-04-16T09:03:48;9.27;;;5.45;;
54430;SDS011;40342;52.998;5.862;2023-04-16T09:06:14;7.13;;;4.70;;
54430;SDS011;40342;52.998;5.862;2023-04-16T09:08:41;7.88;;;5.30;;
54430;SDS011;40342;52.998;5.862;2023-04-16T09:11:08;7.88;;;4.88;;
54430;SDS011;40342;52.998;5.862;2023-04-16T09:13:36;7.18;;;5.00;;
54430;SDS011;40342;52.998;5.862;2023-04-16T09:16:02;9.15;;;5.13;;
54430;SDS011;40342;52.998;5.862;2023-04-16T09:18:29;9.82;;;4.80;;
54430;SDS011;40342;52.998;5.862;2023-04-16T09:20:55;7.00;;;4.63;;
54430;SDS011;40342;52.998;5.862;2023-04-16T09:23:21;5.32;;;4.45;;
54430;SDS011;40342;52.998;5.862;2023-04-16T09:25:46;8.63;;;5.25;;
54430;SDS011;40342;52.998;5.862;2023-04-16T09:28:12;10.68;;;4.95;;
54430;SDS011;40342;52.998;5.862;2023-04-16T09:31:08;5.70;;;4.38;;
54430;SDS011;40342;52.998;5.862;2023-04-16T09:33:38;6.97;;;4.68;;
54430;SDS011;40342;52.998;5.862;2023-04-16T09:36:04;6.15;;;4.60;;
54430;SDS011;40342;52.998;5.862;2023-04-16T09:41:12;8.10;;;4.82;;
54430;SDS011;40342;52.998;5.862;2023-04-16T09:43:48;5.82;;;4.25;;
54430;SDS011;40342;52.998;5.862;2023-04-16T09:46:21;7.00;;;4.15;;
54430;SDS011;40342;52.998;5.862;2023-04-16T09:48:47;5.88;;;4.50;;
54430;SDS011;40342;52.998;5.862;2023-04-16T09:51:13;8.23;;;4.82;;
54430;SDS011;40342;52.998;5.862;2023-04-16T09:53:39;5.45;;;4.57;;
54430;SDS011;40342;52.998;5.862;2023-04-16T09:56:04;5.82;;;4.72;;
54430;SDS011;40342;52.998;5.862;2023-04-16T09:58:31;6.50;;;4.60;;
54430;SDS011;40342;52.998;5.862;2023-04-16T10:01:00;8.55;;;4.70;;
54430;SDS011;40342;52.998;5.862;2023-04-16T10:03:30;8.75;;;5.13;;
54430;SDS011;40342;52.998;5.862;2023-04-16T10:06:00;7.95;;;5.05;;
54430;SDS011;40342;52.998;5.862;2023-04-16T10:08:31;5.90;;;4.85;;
54430;SDS011;40342;52.998;5.862;2023-04-16T10:10:57;9.82;;;5.20;;
54430;SDS011;40342;52.998;5.862;2023-04-16T10:13:23;7.85;;;4.65;;
54430;SDS011;40342;52.998;5.862;2023-04-16T10:15:53;10.82;;;5.80;;
54430;SDS011;40342;52.998;5.862;2023-04-16T10:18:21;5.85;;;4.55;;
54430;SDS011;40342;52.998;5.862;2023-04-16T10:20:47;10.95;;;5.28;;
54430;SDS011;40342;52.998;5.862;2023-04-16T10:23:13;8.45;;;4.72;;
54430;SDS011;40342;52.998;5.862;2023-04-16T10:25:39;5.88;;;4.13;;
54430;SDS011;40342;52.998;5.862;2023-04-16T10:28:06;7.68;;;4.38;;
54430;SDS011;40342;52.998;5.862;2023-04-16T10:30:33;9.30;;;4.97;;
54430;SDS011;40342;52.998;5.862;2023-04-16T10:33:00;5.38;;;4.68;;
54430;SDS011;40342;52.998;5.862;2023-04-16T10:35:28;7.03;;;4.60;;
54430;SDS011;40342;52.998;5.862;2023-04-16T10:37:58;7.63;;;5.05;;
54430;SDS011;40342;52.998;5.862;2023-04-16T10:40:49;6.22;;;4.47;;
54430;SDS011;40342;52.998;5.862;2023-04-16T10:43:21;6.00;;;4.22;;
54430;SDS011;40342;52.998;5.862;2023-04-16T10:45:49;8.68;;;5.03;;
54430;SDS011;40342;52.998;5.862;2023-04-16T10:48:17;6.18;;;4.68;;
54430;SDS011;40342;52.998;5.862;2023-04-16T10:50:52;7.47;;;4.85;;
54430;SDS011;40342;52.998;5.862;2023-04-16T10:53:22;6.00;;;4.80;;
54430;SDS011;40342;52.998;5.862;2023-04-16T10:56:09;8.38;;;5.10;;
54430;SDS011;40342;52.998;5.862;2023-04-16T10:58:38;7.72;;;4.90;;
54430;SDS011;40342;52.998;5.862;2023-04-16T11:01:10;8.27;;;5.10;;
54430;SDS011;40342;52.998;5.862;2023-04-16T11:03:46;8.80;;;5.20;;
54430;SDS011;40342;52.998;5.862;2023-04-16T11:06:18;8.98;;;5.50;;
54430;SDS011;40342;52.998;5.862;2023-04-16T11:08:50;6.18;;;4.60;;
54430;SDS011;40342;52.998;5.862;2023-04-16T11:11:19;6.65;;;4.78;;
54430;SDS011;40342;52.998;5.862;2023-04-16T11:13:45;8.27;;;5.28;;
54430;SDS011;40342;52.998;5.862;2023-04-16T11:16:11;7.32;;;4.90;;
54430;SDS011;40342;52.998;5.862;2023-04-16T11:18:38;7.72;;;4.38;;
54430;SDS011;40342;52.998;5.862;2023-04-16T11:21:09;9.70;;;4.65;;
54430;SDS011;40342;52.998;5.862;2023-04-16T11:23:48;7.50;;;4.63;;
54430;SDS011;40342;52.998;5.862;2023-04-16T11:26:27;8.57;;;5.18;;
54430;SDS011;40342;52.998;5.862;2023-04-16T11:28:54;5.88;;;4.68;;
54430;SDS011;40342;52.998;5.862;2023-04-16T11:31:21;7.30;;;5.50;;
54430;SDS011;40342;52.998;5.862;2023-04-16T11:33:48;8.00;;;4.90;;
54430;SDS011;40342;52.998;5.862;2023-04-16T11:36:13;5.90;;;4.50;;
54430;SDS011;40342;52.998;5.862;2023-04-16T11:38:39;8.73;;;5.75;;
54430;SDS011;40342;52.998;5.862;2023-04-16T11:41:06;8.40;;;5.28;;
54430;SDS011;40342;52.998;5.862;2023-04-16T11:43:33;5.03;;;4.15;;
54430;SDS011;40342;52.998;5.862;2023-04-16T11:45:59;7.93;;;4.97;;
54430;SDS011;40342;52.998;5.862;2023-04-16T11:48:44;8.70;;;5.78;;
54430;SDS011;40342;52.998;5.862;2023-04-16T11:51:14;7.90;;;5.25;;
54430;SDS011;40342;52.998;5.862;2023-04-16T11:53:47;6.38;;;4.95;;
54430;SDS011;40342;52.998;5.862;2023-04-16T11:56:27;8.32;;;6.20;;
54430;SDS011;40342;52.998;5.862;2023-04-16T11:59:12;6.68;;;5.38;;
54430;SDS011;40342;52.998;5.862;2023-04-16T12:01:44;10.07;;;5.85;;
54430;SDS011;40342;52.998;5.862;2023-04-16T12:04:12;8.80;;;5.40;;
54430;SDS011;40342;52.998;5.862;2023-04-16T12:06:39;7.47;;;5.28;;
54430;SDS011;40342;52.998;5.862;2023-04-16T12:09:21;6.28;;;5.40;;
54430;SDS011;40342;52.998;5.862;2023-04-16T12:14:14;6.82;;;4.72;;
54430;SDS011;40342;52.998;5.862;2023-04-16T12:16:40;7.38;;;6.28;;
54430;SDS011;40342;52.998;5.862;2023-04-16T12:19:05;8.63;;;6.00;;
54430;SDS011;40342;52.998;5.862;2023-04-16T12:21:44;9.27;;;5.93;;
54430;SDS011;40342;52.998;5.862;2023-04-16T12:24:15;6.43;;;4.85;;
54430;SDS011;40342;52.998;5.862;2023-04-16T12:26:47;6.80;;;5.05;;
54430;SDS011;40342;52.998;5.862;2023-04-16T12:29:21;5.82;;;4.90;;
54430;SDS011;40342;52.998;5.862;2023-04-16T12:31:50;6.20;;;5.05;;
54430;SDS011;40342;52.998;5.862;2023-04-16T12:34:17;5.25;;;4.75;;
54430;SDS011;40342;52.998;5.862;2023-04-16T12:36:44;8.45;;;5.22;;
54430;SDS011;40342;52.998;5.862;2023-04-16T12:39:10;5.15;;;4.45;;
54430;SDS011;40342;52.998;5.862;2023-04-16T12:41:37;8.38;;;4.82;;
54430;SDS011;40342;52.998;5.862;2023-04-16T12:44:09;7.25;;;4.85;;
54430;SDS011;40342;52.998;5.862;2023-04-16T12:46:44;5.53;;;4.82;;
54430;SDS011;40342;52.998;5.862;2023-04-16T12:49:10;8.23;;;4.97;;
54430;SDS011;40342;52.998;5.862;2023-04-16T12:51:36;6.72;;;4.55;;
54430;SDS011;40342;52.998;5.862;2023-04-16T12:54:03;7.50;;;5.32;;
54430;SDS011;40342;52.998;5.862;2023-04-16T12:56:30;5.40;;;4.75;;
54430;SDS011;40342;52.998;5.862;2023-04-16T12:58:56;5.75;;;4.78;;
54430;SDS011;40342;52.998;5.862;2023-04-16T13:01:22;5.85;;;4.38;;
54430;SDS011;40342;52.998;5.862;2023-04-16T13:03:48;7.82;;;5.57;;
54430;SDS011;40342;52.998;5.862;2023-04-16T13:06:14;7.85;;;4.75;;
54430;SDS011;40342;52.998;5.862;2023-04-16T13:08:41;6.13;;;4.80;;
54430;SDS011;40342;52.998;5.862;2023-04-16T13:11:08;9.80;;;4.90;;
54430;SDS011;40342;52.998;5.862;2023-04-16T13:13:34;8.15;;;4.88;;
54430;SDS011;40342;52.998;5.862;2023-04-16T13:16:00;5.93;;;4.90;;
54430;SDS011;40342;52.998;5.862;2023-04-16T13:18:28;7.00;;;4.80;;
54430;SDS011;40342;52.998;5.862;2023-04-16T13:20:54;8.32;;;5.07;;
54430;SDS011;40342;52.998;5.862;2023-04-16T13:23:19;5.45;;;4.68;;
54430;SDS011;40342;52.998;5.862;2023-04-16T13:25:45;6.93;;;4.78;;
54430;SDS011;40342;52.998;5.862;2023-04-16T13:28:11;5.82;;;4.57;;
54430;SDS011;40342;52.998;5.862;2023-04-16T13:30:36;7.82;;;5.43;;
54430;SDS011;40342;52.998;5.862;2023-04-16T13:33:02;5.15;;;4.28;;
54430;SDS011;40342;52.998;5.862;2023-04-16T13:35:28;7.30;;;4.72;;
54430;SDS011;40342;52.998;5.862;2023-04-16T13:37:53;6.05;;;4.55;;
54430;SDS011;40342;52.998;5.862;2023-04-16T13:40:19;5.65;;;5.05;;
54430;SDS011;40342;52.998;5.862;2023-04-16T13:42:45;9.00;;;5.60;;
54430;SDS011;40342;52.998;5.862;2023-04-16T13:45:10;7.72;;;5.85;;
54430;SDS011;40342;52.998;5.862;2023-04-16T13:47:39;5.05;;;4.30;;
54430;SDS011;40342;52.998;5.862;2023-04-16T13:50:08;6.28;;;5.68;;
54430;SDS011;40342;52.998;5.862;2023-04-16T13:52:34;6.15;;;4.97;;
54430;SDS011;40342;52.998;5.862;2023-04-16T13:55:00;5.82;;;4.85;;
54430;SDS011;40342;52.998;5.862;2023-04-16T13:57:29;6.95;;;5.55;;
54430;SDS011;40342;52.998;5.862;2023-04-16T13:59:56;6.38;;;5.22;;
54430;SDS011;40342;52.998;5.862;2023-04-16T14:02:21;7.75;;;5.43;;
54430;SDS011;40342;52.998;5.862;2023-04-16T14:04:47;6.25;;;5.22;;
54430;SDS011;40342;52.998;5.862;2023-04-16T14:07:13;5.95;;;5.15;;
54430;SDS011;40342;52.998;5.862;2023-04-16T14:09:39;7.18;;;4.97;;
54430;SDS011;40342;52.998;5.862;2023-04-16T14:12:05;6.28;;;4.95;;
54430;SDS011;40342;52.998;5.862;2023-04-16T14:14:31;5.72;;;5.22;;
54430;SDS011;40342;52.998;5.862;2023-04-16T14:16:56;6.13;;;5.18;;
54430;SDS011;40342;52.998;5.862;2023-04-16T14:19:22;5.88;;;5.28;;
54430;SDS011;40342;52.998;5.862;2023-04-16T14:21:48;5.93;;;5.38;;
54430;SDS011;40342;52.998;5.862;2023-04-16T14:24:13;6.93;;;5.53;;
54430;SDS011;40342;52.998;5.862;2023-04-16T14:26:39;5.80;;;4.97;;
54430;SDS011;40342;52.998;5.862;2023-04-16T14:29:06;5.95;;;4.63;;
54430;SDS011;40342;52.998;5.862;2023-04-16T14:31:32;5.80;;;5.07;;
54430;SDS011;40342;52.998;5.862;2023-04-16T14:33:57;6.55;;;4.93;;
54430;SDS011;40342;52.998;5.862;2023-04-16T14:36:23;6.72;;;5.22;;
54430;SDS011;40342;52.998;5.862;2023-04-16T14:38:49;5.68;;;4.82;;
54430;SDS011;40342;52.998;5.862;2023-04-16T14:41:15;5.93;;;4.93;;
54430;SDS011;40342;52.998;5.862;2023-04-16T14:43:41;5.60;;;4.88;;
54430;SDS011;40342;52.998;5.862;2023-04-16T14:46:08;6.05;;;4.80;;
54430;SDS011;40342;52.998;5.862;2023-04-16T14:48:34;8.65;;;5.20;;